createdAt,value
2023-04-26T00:02:30.088Z,7.49
2023-04-26T00:05:04.051Z,7.43
2023-04-26T00:07:38.055Z,7.39
2023-04-26T00:10:12.126Z,7.38
2023-04-26T00:12:46.418Z,7.36
2023-04-26T00:15:19.440Z,7.31
2023-04-26T00:17:52.946Z,7.25
2023-04-26T00:20:25.927Z,7.18
2023-04-26T00:22:58.882Z,7.16
2023-04-26T00:25:31.843Z,7.12
2023-04-26T00:28:06.427Z,7.08
2023-04-26T00:30:42.135Z,7.01
2023-04-26T00:33:15.096Z,6.97
2023-04-26T00:35:48.071Z,6.94
2023-04-26T00:38:21.042Z,6.90
2023-04-26T00:40:53.971Z,6.88
2023-04-26T00:43:28.287Z,6.80
2023-04-26T00:46:01.336Z,6.77
2023-04-26T00:48:35.104Z,6.75
2023-04-26T00:51:08.280Z,6.74
2023-04-26T00:53:41.413Z,6.72
2023-04-26T00:56:14.648Z,6.65
2023-04-26T00:58:49.080Z,6.67
2023-04-26T01:01:22.333Z,6.65
2023-04-26T01:03:55.535Z,6.65
2023-04-26T01:06:34.328Z,6.63
2023-04-26T01:09:09.468Z,6.64
2023-04-26T01:11:44.701Z,6.60
2023-04-26T01:14:19.260Z,6.63
2023-04-26T01:16:52.488Z,6.63
2023-04-26T01:19:25.624Z,6.64
2023-04-26T01:21:58.753Z,6.67
2023-04-26T01:24:36.701Z,6.64
2023-04-26T01:27:09.768Z,6.62
2023-04-26T01:29:42.794Z,6.58
2023-04-26T01:32:15.820Z,6.55
2023-04-26T01:34:48.900Z,6.59
2023-04-26T01:37:21.869Z,6.53
2023-04-26T01:39:56.318Z,6.54
2023-04-26T01:42:29.431Z,6.56
2023-04-26T01:45:02.653Z,6.50
2023-04-26T01:47:35.792Z,6.44
2023-04-26T01:50:11.890Z,6.43
2023-04-26T01:52:44.859Z,6.39
2023-04-26T01:55:19.235Z,6.36
2023-04-26T01:57:52.217Z,6.38
2023-04-26T02:00:25.295Z,6.34
2023-04-26T02:02:58.991Z,6.35
2023-04-26T02:05:32.022Z,6.29
2023-04-26T02:08:06.131Z,6.28
2023-04-26T02:10:40.526Z,6.17
2023-04-26T02:13:13.521Z,5.98
2023-04-26T02:15:48.344Z,5.96
2023-04-26T02:18:22.500Z,5.91
2023-04-26T02:20:55.476Z,5.94
2023-04-26T02:23:28.560Z,5.93
2023-04-26T02:26:03.226Z,5.90
2023-04-26T02:28:36.716Z,5.87
2023-04-26T02:31:09.828Z,5.91
2023-04-26T02:33:42.848Z,5.97
2023-04-26T02:36:15.873Z,5.89
2023-04-26T02:38:48.814Z,5.88
2023-04-26T02:41:23.461Z,5.68
2023-04-26T02:43:56.399Z,5.65
2023-04-26T02:46:29.427Z,5.65
2023-04-26T02:49:02.426Z,5.66
2023-04-26T02:51:35.499Z,5.66
2023-04-26T02:54:08.469Z,5.69
2023-04-26T02:56:42.807Z,5.67
2023-04-26T02:59:15.813Z,5.65
2023-04-26T03:01:48.824Z,5.50
2023-04-26T03:04:21.903Z,5.39
2023-04-26T03:06:54.891Z,5.34
2023-04-26T03:09:27.984Z,5.35
2023-04-26T03:12:03.251Z,5.35
2023-04-26T03:14:37.058Z,5.38
2023-04-26T03:17:10.076Z,5.52
2023-04-26T03:19:43.108Z,5.49
2023-04-26T03:22:17.924Z,5.54
2023-04-26T03:24:50.956Z,5.56
2023-04-26T03:27:25.326Z,5.58
2023-04-26T03:29:58.537Z,5.53
2023-04-26T03:32:31.733Z,5.51
2023-04-26T03:35:05.143Z,5.58
2023-04-26T03:37:39.735Z,5.57
2023-04-26T03:40:13.880Z,5.63
2023-04-26T03:42:48.305Z,5.61
2023-04-26T03:45:21.470Z,5.62
2023-04-26T03:47:54.549Z,5.62
2023-04-26T03:50:27.679Z,5.63
2023-04-26T03:53:00.689Z,5.54
2023-04-26T03:55:33.678Z,5.53
2023-04-26T03:58:08.740Z,5.51
2023-04-26T04:00:42.214Z,5.57
2023-04-26T04:03:15.703Z,5.65
2023-04-26T04:05:48.841Z,5.63
2023-04-26T04:08:21.846Z,5.57
2023-04-26T04:10:54.878Z,5.50
2023-04-26T04:13:29.414Z,5.41
2023-04-26T04:16:02.460Z,5.41
2023-04-26T04:18:35.620Z,5.23
2023-04-26T04:21:08.621Z,5.28
2023-04-26T04:23:42.235Z,5.35
2023-04-26T04:26:15.285Z,5.40
2023-04-26T04:28:49.830Z,5.30
2023-04-26T04:31:23.211Z,5.35
2023-04-26T04:33:56.303Z,5.33
2023-04-26T04:36:29.331Z,5.38
2023-04-26T04:39:03.286Z,5.43
2023-04-26T04:41:36.914Z,5.44
2023-04-26T04:44:11.250Z,5.39
2023-04-26T04:46:44.541Z,5.39
2023-04-26T04:49:19.228Z,5.48
2023-04-26T04:51:53.103Z,5.48
2023-04-26T04:54:26.100Z,5.46
2023-04-26T04:56:59.153Z,5.46
2023-04-26T04:59:33.515Z,5.51
2023-04-26T05:02:06.748Z,5.55
2023-04-26T05:04:40.000Z,5.63
2023-04-26T05:07:15.531Z,5.69
2023-04-26T05:09:48.545Z,5.69
2023-04-26T05:12:21.808Z,5.71
2023-04-26T05:14:56.210Z,5.81
2023-04-26T05:17:30.923Z,5.78
2023-04-26T05:20:07.890Z,5.73
2023-04-26T05:22:41.333Z,5.72
2023-04-26T05:25:14.669Z,5.74
2023-04-26T05:27:47.651Z,5.77
2023-04-26T05:30:22.109Z,5.92
2023-04-26T05:32:56.826Z,5.65
2023-04-26T05:35:29.868Z,5.81
2023-04-26T05:38:02.880Z,5.79
2023-04-26T05:40:35.916Z,5.81
2023-04-26T05:43:08.963Z,5.81
2023-04-26T05:45:52.393Z,5.88
2023-04-26T05:48:26.245Z,5.96
2023-04-26T05:50:59.342Z,6.00
2023-04-26T05:53:33.713Z,5.73
2023-04-26T05:56:07.133Z,5.72
2023-04-26T05:58:40.137Z,5.85
2023-04-26T06:01:14.832Z,6.12
2023-04-26T06:03:48.310Z,6.16
2023-04-26T06:06:21.539Z,6.45
2023-04-26T06:08:54.543Z,6.34
2023-04-26T06:11:27.744Z,6.19
2023-04-26T06:14:00.756Z,6.11
2023-04-26T06:16:35.171Z,6.19
2023-04-26T06:19:08.164Z,6.15
2023-04-26T06:21:41.181Z,6.44
2023-04-26T06:24:14.151Z,6.39
2023-04-26T06:26:47.287Z,6.39
2023-04-26T06:29:21.241Z,6.57
2023-04-26T06:31:55.742Z,6.42
2023-04-26T06:34:28.778Z,6.63
2023-04-26T06:37:01.883Z,6.37
2023-04-26T06:39:34.930Z,6.54
2023-04-26T06:42:08.070Z,6.66
2023-04-26T06:44:41.079Z,6.76
2023-04-26T06:47:15.419Z,6.77
2023-04-26T06:49:48.446Z,6.91
2023-04-26T06:52:21.756Z,7.16
2023-04-26T06:54:57.591Z,7.15
2023-04-26T06:57:30.918Z,7.28
2023-04-26T07:00:06.204Z,7.41
2023-04-26T07:02:41.280Z,7.59
2023-04-26T07:05:15.305Z,7.84
2023-04-26T07:07:49.609Z,8.12
2023-04-26T07:10:23.045Z,8.43
2023-04-26T07:12:56.069Z,9.06
2023-04-26T07:15:29.726Z,9.76
2023-04-26T07:18:04.164Z,10.17
2023-04-26T07:20:37.254Z,10.79
2023-04-26T07:23:10.235Z,10.95
2023-04-26T07:25:43.224Z,11.12
2023-04-26T07:28:16.252Z,11.20
2023-04-26T07:30:49.303Z,11.62
2023-04-26T07:33:23.766Z,12.18
2023-04-26T07:35:58.734Z,12.27
2023-04-26T07:38:31.929Z,12.70
2023-04-26T07:41:05.559Z,13.12
2023-04-26T07:43:39.429Z,13.49
2023-04-26T07:46:12.507Z,12.77
2023-04-26T07:48:46.851Z,12.55
2023-04-26T07:51:20.106Z,12.91
2023-04-26T07:53:53.319Z,13.02
2023-04-26T07:56:26.551Z,12.98
2023-04-26T07:58:59.514Z,12.84
2023-04-26T08:01:32.539Z,12.73
2023-04-26T08:04:07.390Z,12.98
2023-04-26T08:06:44.911Z,13.16
2023-04-26T08:09:18.981Z,13.31
2023-04-26T08:11:52.020Z,13.20
2023-04-26T08:14:25.036Z,13.34
2023-04-26T08:16:58.140Z,13.35
2023-04-26T08:19:33.439Z,13.22
2023-04-26T08:22:06.618Z,12.98
2023-04-26T08:24:39.662Z,13.36
2023-04-26T08:27:12.752Z,13.52
2023-04-26T08:29:46.034Z,13.70
2023-04-26T08:32:19.056Z,13.76
2023-04-26T08:34:53.400Z,13.89
2023-04-26T08:37:28.020Z,14.08
2023-04-26T08:40:02.281Z,13.84
2023-04-26T08:42:40.439Z,13.75
2023-04-26T08:45:13.445Z,13.78
2023-04-26T08:47:50.249Z,13.84
2023-04-26T08:50:25.237Z,13.99
2023-04-26T08:52:58.281Z,14.14
2023-04-26T08:55:31.649Z,14.22
2023-04-26T08:58:06.876Z,14.24
2023-04-26T09:00:39.968Z,14.52
2023-04-26T09:03:13.539Z,14.70
2023-04-26T09:05:48.241Z,14.66
2023-04-26T09:08:22.065Z,14.86
2023-04-26T09:10:55.031Z,15.04
2023-04-26T09:13:30.431Z,14.98
2023-04-26T09:16:05.024Z,14.86
2023-04-26T09:18:51.878Z,14.56
2023-04-26T09:21:26.518Z,14.51
2023-04-26T09:24:01.703Z,14.22
2023-04-26T09:26:34.720Z,14.08
2023-04-26T09:29:16.283Z,13.90
2023-04-26T09:31:50.802Z,13.79
2023-04-26T09:34:23.895Z,13.58
2023-04-26T09:36:58.722Z,13.67
2023-04-26T09:39:33.909Z,13.77
2023-04-26T09:42:07.897Z,13.78
2023-04-26T09:44:41.247Z,13.51
2023-04-26T09:47:14.271Z,13.38
2023-04-26T09:49:50.501Z,13.73
2023-04-26T09:52:24.892Z,13.80
2023-04-26T09:54:57.942Z,13.90
2023-04-26T09:57:31.349Z,13.73
2023-04-26T10:00:12.355Z,13.93
2023-04-26T10:02:45.584Z,13.81
2023-04-26T10:05:18.998Z,13.81
2023-04-26T10:07:53.423Z,13.98
2023-04-26T10:10:27.204Z,14.01
2023-04-26T10:13:00.958Z,13.88
2023-04-26T10:15:34.107Z,13.74
2023-04-26T10:18:07.306Z,13.64
2023-04-26T10:20:42.932Z,13.43
2023-04-26T10:23:22.062Z,13.41
2023-04-26T10:25:56.479Z,13.51
2023-04-26T10:29:01.710Z,13.56
2023-04-26T10:32:08.795Z,13.80
2023-04-26T10:34:41.907Z,13.85
2023-04-26T10:37:16.411Z,13.84
2023-04-26T10:39:50.838Z,13.74
2023-04-26T10:42:27.404Z,13.82
2023-04-26T10:45:02.773Z,13.83
2023-04-26T10:47:37.374Z,13.67
2023-04-26T10:50:12.542Z,13.76
2023-04-26T10:53:06.795Z,13.78
2023-04-26T10:55:42.666Z,13.67
2023-04-26T10:58:29.704Z,13.68
2023-04-26T11:01:07.156Z,13.65
2023-04-26T11:03:42.393Z,13.67
2023-04-26T11:06:18.207Z,13.86
2023-04-26T11:08:51.964Z,13.92
2023-04-26T11:11:29.804Z,14.16
2023-04-26T11:14:03.875Z,14.25
2023-04-26T11:16:37.203Z,14.63
2023-04-26T11:19:11.185Z,14.52
2023-04-26T11:21:44.217Z,14.64
2023-04-26T11:24:17.749Z,14.82
2023-04-26T11:26:54.225Z,14.55
2023-04-26T11:29:27.368Z,14.48
2023-04-26T11:32:00.396Z,14.64
2023-04-26T11:34:34.350Z,14.86
2023-04-26T11:37:08.474Z,14.59
2023-04-26T11:39:41.573Z,14.47
2023-04-26T11:42:15.977Z,14.34
2023-04-26T11:44:52.603Z,14.25
2023-04-26T11:47:26.176Z,14.19
2023-04-26T11:49:59.406Z,14.13
2023-04-26T11:52:32.631Z,14.39
2023-04-26T11:55:07.682Z,14.50
2023-04-26T11:57:42.149Z,14.77
2023-04-26T12:00:16.772Z,14.76
2023-04-26T12:02:52.249Z,14.91
2023-04-26T12:05:28.228Z,14.81
2023-04-26T12:08:02.128Z,14.77
2023-04-26T12:10:37.472Z,14.98
2023-04-26T12:13:15.267Z,15.09
2023-04-26T12:15:50.428Z,14.83
2023-04-26T12:18:23.663Z,14.78
2023-04-26T12:21:00.055Z,15.01
2023-04-26T12:23:41.752Z,14.98
2023-04-26T12:26:15.377Z,14.64
2023-04-26T12:28:49.764Z,14.68
2023-04-26T12:31:23.845Z,14.77
2023-04-26T12:33:56.945Z,14.74
2023-04-26T12:36:29.936Z,14.60
2023-04-26T12:39:05.273Z,14.78
2023-04-26T12:41:38.342Z,14.92
2023-04-26T12:44:14.295Z,14.95
2023-04-26T12:46:47.623Z,14.84
2023-04-26T12:49:21.096Z,14.71
2023-04-26T12:51:54.104Z,14.50
2023-04-26T12:54:27.332Z,14.32
2023-04-26T12:57:00.386Z,14.24
2023-04-26T12:59:34.716Z,14.12
2023-04-26T13:02:10.176Z,14.15
2023-04-26T13:04:43.541Z,14.19
2023-04-26T13:07:17.303Z,14.14
2023-04-26T13:09:50.437Z,14.02
2023-04-26T13:12:23.523Z,14.25
2023-04-26T13:14:57.889Z,14.28
2023-04-26T13:17:31.730Z,14.24
2023-04-26T13:20:06.950Z,14.06
2023-04-26T13:22:42.389Z,13.85
2023-04-26T13:25:17.988Z,13.92
2023-04-26T13:27:53.461Z,13.98
2023-04-26T13:30:27.872Z,14.06
2023-04-26T13:33:01.091Z,14.18
2023-04-26T13:35:34.177Z,14.27
2023-04-26T13:38:07.184Z,14.19
2023-04-26T13:40:40.244Z,14.07
2023-04-26T13:43:13.263Z,14.15
2023-04-26T13:45:47.559Z,13.98
2023-04-26T13:48:20.755Z,13.87
2023-04-26T13:50:53.762Z,14.10
2023-04-26T13:53:27.098Z,14.06
2023-04-26T13:56:00.031Z,14.13
2023-04-26T13:58:33.035Z,14.07
2023-04-26T14:01:07.378Z,14.19
2023-04-26T14:03:40.975Z,14.26
2023-04-26T14:06:14.170Z,14.32
2023-04-26T14:08:47.106Z,14.61
2023-04-26T14:11:20.104Z,14.66
2023-04-26T14:13:55.928Z,14.69
2023-04-26T14:16:30.401Z,14.58
2023-04-26T14:19:03.670Z,14.51
2023-04-26T14:21:36.745Z,14.43
2023-04-26T14:24:11.161Z,14.32
2023-04-26T14:26:44.127Z,14.40
2023-04-26T14:29:17.180Z,14.51
2023-04-26T14:31:51.511Z,14.51
2023-04-26T14:34:24.541Z,14.46
2023-04-26T14:37:01.513Z,14.34
2023-04-26T14:39:34.866Z,14.69
2023-04-26T14:42:07.945Z,14.58
2023-04-26T14:44:41.428Z,14.26
2023-04-26T14:47:15.939Z,14.17
2023-04-26T14:49:48.998Z,14.25
2023-04-26T14:52:26.814Z,14.31
2023-04-26T14:54:59.773Z,14.25
2023-04-26T14:57:32.968Z,14.35
2023-04-26T15:00:09.135Z,14.45
2023-04-26T15:02:43.945Z,14.33
2023-04-26T15:05:17.762Z,14.47
2023-04-26T15:07:50.856Z,14.50
2023-04-26T15:10:23.805Z,14.49
2023-04-26T15:12:57.134Z,14.28
2023-04-26T15:15:30.148Z,14.27
2023-04-26T15:18:04.915Z,14.16
2023-04-26T15:20:41.136Z,14.39
2023-04-26T15:23:14.664Z,14.38
2023-04-26T15:25:48.166Z,14.27
2023-04-26T15:28:21.524Z,14.14
2023-04-26T15:31:03.170Z,14.09
2023-04-26T15:33:37.764Z,14.13
2023-04-26T15:36:11.110Z,14.06
2023-04-26T15:38:45.299Z,14.06
2023-04-26T15:41:18.379Z,14.03
2023-04-26T15:43:55.080Z,14.12
2023-04-26T15:46:28.165Z,14.04
2023-04-26T15:49:02.517Z,14.06
2023-04-26T15:51:35.859Z,14.26
2023-04-26T15:54:08.925Z,14.23
2023-04-26T15:56:42.316Z,14.36
2023-04-26T15:59:15.690Z,14.19
2023-04-26T16:01:48.780Z,13.97
2023-04-26T16:04:23.373Z,13.85
2023-04-26T16:06:56.593Z,13.75
2023-04-26T16:09:30.573Z,13.78
2023-04-26T16:12:05.548Z,13.79
2023-04-26T16:14:38.667Z,13.77
2023-04-26T16:17:11.638Z,13.69
2023-04-26T16:19:45.972Z,13.59
2023-04-26T16:22:18.945Z,13.59
2023-04-26T16:24:51.883Z,13.51
2023-04-26T16:27:24.978Z,13.44
2023-04-26T16:29:58.316Z,13.49
2023-04-26T16:32:31.804Z,13.44
2023-04-26T16:35:08.778Z,13.35
2023-04-26T16:37:41.867Z,13.26
2023-04-26T16:40:15.349Z,13.19
2023-04-26T16:42:48.304Z,13.17
2023-04-26T16:45:21.874Z,13.13
2023-04-26T16:47:54.881Z,13.07
2023-04-26T16:50:29.342Z,13.06
2023-04-26T16:53:02.309Z,13.03
2023-04-26T16:55:35.266Z,12.87
2023-04-26T16:58:09.232Z,12.80
2023-04-26T17:00:44.570Z,12.75
2023-04-26T17:03:18.180Z,12.71
2023-04-26T17:05:52.705Z,12.67
2023-04-26T17:08:27.134Z,12.64
2023-04-26T17:11:00.140Z,12.50
2023-04-26T17:13:33.637Z,12.47
2023-04-26T17:16:09.461Z,12.43
2023-04-26T17:18:42.732Z,12.48
2023-04-26T17:21:17.030Z,12.46
2023-04-26T17:23:49.971Z,12.38
2023-04-26T17:26:22.942Z,12.35
2023-04-26T17:28:56.335Z,12.31
2023-04-26T17:31:29.565Z,12.29
2023-04-26T17:34:04.754Z,12.30
2023-04-26T17:36:39.343Z,12.26
2023-04-26T17:39:12.523Z,12.26
2023-04-26T17:41:45.498Z,12.23
2023-04-26T17:44:18.745Z,12.23
2023-04-26T17:46:51.675Z,12.23
2023-04-26T17:49:25.753Z,12.20
2023-04-26T17:52:00.157Z,12.16
2023-04-26T17:54:33.257Z,12.11
2023-04-26T17:57:07.708Z,12.09
2023-04-26T17:59:40.674Z,12.04
2023-04-26T18:02:13.770Z,11.99
2023-04-26T18:04:47.530Z,11.90
2023-04-26T18:07:22.206Z,11.86
2023-04-26T18:09:55.131Z,11.80
2023-04-26T18:12:30.650Z,11.71
2023-04-26T18:15:03.699Z,11.65
2023-04-26T18:17:36.886Z,11.57
2023-04-26T18:20:11.225Z,11.52
2023-04-26T18:22:45.555Z,11.45
2023-04-26T18:25:18.670Z,11.39
2023-04-26T18:27:51.747Z,11.34
2023-04-26T18:30:24.716Z,11.26
2023-04-26T18:32:57.690Z,11.21
2023-04-26T18:35:31.014Z,11.13
2023-04-26T18:38:05.493Z,11.05
2023-04-26T18:40:38.459Z,11.00
2023-04-26T18:43:11.949Z,10.95
2023-04-26T18:45:45.133Z,10.91
2023-04-26T18:48:18.078Z,10.89
2023-04-26T18:50:51.859Z,10.88
2023-04-26T18:53:26.311Z,10.81
2023-04-26T18:55:59.323Z,10.76
2023-04-26T18:58:32.368Z,10.73
2023-04-26T19:01:05.415Z,10.66
2023-04-26T19:03:38.572Z,10.64
2023-04-26T19:06:15.097Z,10.58
2023-04-26T19:08:49.442Z,10.53
2023-04-26T19:11:22.469Z,10.52
2023-04-26T19:13:55.508Z,10.52
2023-04-26T19:16:28.510Z,10.36
2023-04-26T19:19:01.608Z,10.27
2023-04-26T19:21:35.084Z,10.22
2023-04-26T19:24:09.843Z,10.09
2023-04-26T19:26:43.053Z,10.09
2023-04-26T19:29:16.105Z,10.05
2023-04-26T19:31:49.129Z,10.06
2023-04-26T19:34:22.777Z,10.10
2023-04-26T19:36:55.966Z,10.08
2023-04-26T19:39:30.529Z,10.02
2023-04-26T19:42:03.608Z,10.02
2023-04-26T19:44:36.584Z,9.98
2023-04-26T19:47:09.663Z,9.98
2023-04-26T19:49:42.663Z,9.93
2023-04-26T19:52:15.625Z,9.92
2023-04-26T19:54:49.962Z,9.83
2023-04-26T19:57:23.305Z,9.81
2023-04-26T19:59:56.424Z,9.81
2023-04-26T20:02:29.621Z,9.82
2023-04-26T20:05:03.014Z,9.84
2023-04-26T20:07:36.135Z,9.82
2023-04-26T20:10:11.431Z,9.80
2023-04-26T20:13:00.457Z,9.83
2023-04-26T20:15:34.059Z,9.83
2023-04-26T20:18:07.401Z,9.86
2023-04-26T20:20:40.420Z,9.81
2023-04-26T20:23:13.365Z,9.70
2023-04-26T20:25:47.719Z,9.70
2023-04-26T20:28:20.893Z,9.64
2023-04-26T20:30:54.147Z,9.66
2023-04-26T20:33:27.206Z,9.51
2023-04-26T20:36:00.211Z,9.43
2023-04-26T20:38:33.439Z,9.37
2023-04-26T20:41:07.748Z,9.39
2023-04-26T20:43:40.954Z,9.33
2023-04-26T20:46:14.039Z,9.32
2023-04-26T20:48:47.139Z,9.32
2023-04-26T20:51:20.136Z,9.27
2023-04-26T20:53:53.076Z,9.25
2023-04-26T20:56:27.417Z,9.18
2023-04-26T20:59:00.539Z,9.14
2023-04-26T21:01:34.082Z,9.01
2023-04-26T21:04:07.230Z,8.95
2023-04-26T21:06:40.568Z,8.83
2023-04-26T21:09:13.583Z,8.82
2023-04-26T21:11:47.880Z,8.80
2023-04-26T21:14:20.998Z,8.84
2023-04-26T21:16:53.949Z,8.86
2023-04-26T21:19:26.942Z,8.85
2023-04-26T21:21:59.894Z,8.83
2023-04-26T21:24:32.805Z,8.86
2023-04-26T21:27:07.116Z,8.85
2023-04-26T21:29:40.109Z,8.81
2023-04-26T21:32:13.221Z,8.76
2023-04-26T21:34:46.207Z,8.77
2023-04-26T21:37:19.191Z,8.77
2023-04-26T21:39:52.127Z,8.73
2023-04-26T21:42:26.412Z,8.69
2023-04-26T21:44:59.614Z,8.57
2023-04-26T21:47:33.190Z,8.54
2023-04-26T21:50:07.514Z,8.51
2023-04-26T21:52:40.504Z,8.47
2023-04-26T21:55:13.422Z,8.43
2023-04-26T21:57:47.725Z,8.48
2023-04-26T22:00:21.098Z,8.48
2023-04-26T22:02:54.181Z,8.46
2023-04-26T22:05:27.247Z,8.47
2023-04-26T22:08:00.255Z,8.48
2023-04-26T22:10:33.269Z,8.48
2023-04-26T22:13:07.592Z,8.43
2023-04-26T22:15:41.073Z,8.33
2023-04-26T22:18:14.045Z,8.35
2023-04-26T22:20:47.085Z,8.38
2023-04-26T22:23:20.062Z,8.41
2023-04-26T22:25:53.191Z,8.44
2023-04-26T22:28:27.767Z,8.39
2023-04-26T22:31:00.825Z,8.40
2023-04-26T22:33:33.790Z,8.42
2023-04-26T22:36:07.496Z,8.39
2023-04-26T22:38:40.778Z,8.37
2023-04-26T22:41:13.790Z,8.32
2023-04-26T22:43:48.060Z,8.33
2023-04-26T22:46:21.073Z,8.36
2023-04-26T22:48:54.198Z,8.25
2023-04-26T22:51:27.188Z,8.12
2023-04-26T22:54:01.289Z,8.04
2023-04-26T22:56:34.296Z,8.07
2023-04-26T22:59:08.626Z,8.12
2023-04-26T23:01:41.736Z,7.96
2023-04-26T23:04:14.846Z,7.83
2023-04-26T23:06:47.901Z,7.85
2023-04-26T23:09:20.960Z,7.87
2023-04-26T23:11:53.968Z,7.87
2023-04-26T23:14:29.636Z,7.90
2023-04-26T23:17:02.717Z,7.92
2023-04-26T23:19:36.515Z,7.97
2023-04-26T23:22:09.649Z,8.03
2023-04-26T23:24:42.679Z,8.03
2023-04-26T23:27:15.719Z,8.04
2023-04-26T23:29:51.387Z,7.95
2023-04-26T23:32:24.460Z,7.89
2023-04-26T23:34:57.429Z,7.90
2023-04-26T23:37:30.429Z,7.93
2023-04-26T23:40:05.698Z,7.88
2023-04-26T23:42:38.711Z,7.83
2023-04-26T23:45:13.357Z,7.73
2023-04-26T23:47:46.472Z,7.74
2023-04-26T23:50:19.491Z,7.77
2023-04-26T23:52:52.519Z,7.80
2023-04-26T23:55:25.583Z,7.75
2023-04-26T23:57:58.545Z,7.70
